sensor_id;sensor_type;location;lat;lon;timestamp;P1;durP1;ratioP1;P2;durP2;ratioP2
75446;SDS011;64024;55.820;37.574;2023-06-10T00:02:07;2.78;;;1.80;;
75446;SDS011;64024;55.820;37.574;2023-06-10T00:04:33;2.50;;;1.88;;
75446;SDS011;64024;55.820;37.574;2023-06-10T00:06:59;3.90;;;1.90;;
75446;SDS011;64024;55.820;37.574;2023-06-10T00:09:24;3.80;;;1.80;;
75446;SDS011;64024;55.820;37.574;2023-06-10T00:11:50;2.72;;;1.85;;
75446;SDS011;64024;55.820;37.574;2023-06-10T00:14:16;2.22;;;1.52;;
75446;SDS011;64024;55.820;37.574;2023-06-10T00:16:42;3.83;;;1.90;;
75446;SDS011;64024;55.820;37.574;2023-06-10T00:19:10;2.35;;;1.70;;
75446;SDS011;64024;55.820;37.574;2023-06-10T00:21:38;2.60;;;1.77;;
75446;SDS011;64024;55.820;37.574;2023-06-10T00:24:08;3.70;;;1.80;;
75446;SDS011;64024;55.820;37.574;2023-06-10T00:26:37;5.30;;;2.20;;
75446;SDS011;64024;55.820;37.574;2023-06-10T00:29:04;3.08;;;1.70;;
75446;SDS011;64024;55.820;37.574;2023-06-10T00:31:30;3.15;;;1.73;;
75446;SDS011;64024;55.820;37.574;2023-06-10T00:33:56;3.20;;;1.50;;
75446;SDS011;64024;55.820;37.574;2023-06-10T00:36:21;2.42;;;1.65;;
75446;SDS011;64024;55.820;37.574;2023-06-10T00:38:47;3.65;;;1.85;;
75446;SDS011;64024;55.820;37.574;2023-06-10T00:41:13;4.13;;;2.03;;
75446;SDS011;64024;55.820;37.574;2023-06-10T00:43:39;3.78;;;2.45;;
75446;SDS011;64024;55.820;37.574;2023-06-10T00:46:05;2.60;;;1.58;;
75446;SDS011;64024;55.820;37.574;2023-06-10T00:48:31;3.40;;;1.92;;
75446;SDS011;64024;55.820;37.574;2023-06-10T00:50:57;2.83;;;2.40;;
75446;SDS011;64024;55.820;37.574;2023-06-10T00:53:25;2.80;;;1.80;;
75446;SDS011;64024;55.820;37.574;2023-06-10T00:55:51;3.97;;;2.03;;
75446;SDS011;64024;55.820;37.574;2023-06-10T00:58:17;3.42;;;1.50;;
75446;SDS011;64024;55.820;37.574;2023-06-10T01:00:43;2.92;;;1.63;;
75446;SDS011;64024;55.820;37.574;2023-06-10T01:05:37;3.67;;;1.83;;
75446;SDS011;64024;55.820;37.574;2023-06-10T01:08:08;2.13;;;1.58;;
75446;SDS011;64024;55.820;37.574;2023-06-10T01:10:47;3.90;;;2.13;;
75446;SDS011;64024;55.820;37.574;2023-06-10T01:13:18;4.60;;;2.00;;
75446;SDS011;64024;55.820;37.574;2023-06-10T01:15:49;4.05;;;2.30;;
75446;SDS011;64024;55.820;37.574;2023-06-10T01:18:16;3.70;;;2.03;;
75446;SDS011;64024;55.820;37.574;2023-06-10T01:20:42;4.07;;;2.10;;
75446;SDS011;64024;55.820;37.574;2023-06-10T01:23:10;2.92;;;1.77;;
75446;SDS011;64024;55.820;37.574;2023-06-10T01:25:59;4.20;;;2.38;;
75446;SDS011;64024;55.820;37.574;2023-06-10T01:28:31;2.95;;;2.22;;
75446;SDS011;64024;55.820;37.574;2023-06-10T01:31:09;5.72;;;2.15;;
75446;SDS011;64024;55.820;37.574;2023-06-10T01:33:59;3.47;;;2.40;;
75446;SDS011;64024;55.820;37.574;2023-06-10T01:36:27;3.42;;;2.50;;
75446;SDS011;64024;55.820;37.574;2023-06-10T01:38:54;3.47;;;2.33;;
75446;SDS011;64024;55.820;37.574;2023-06-10T01:41:20;3.92;;;2.42;;
75446;SDS011;64024;55.820;37.574;2023-06-10T01:43:46;2.45;;;1.85;;
75446;SDS011;64024;55.820;37.574;2023-06-10T01:46:12;9.45;;;3.13;;
75446;SDS011;64024;55.820;37.574;2023-06-10T01:48:41;9.07;;;2.70;;
75446;SDS011;64024;55.820;37.574;2023-06-10T01:51:07;3.67;;;2.53;;
75446;SDS011;64024;55.820;37.574;2023-06-10T01:53:32;4.68;;;2.45;;
75446;SDS011;64024;55.820;37.574;2023-06-10T01:55:58;3.65;;;2.10;;
75446;SDS011;64024;55.820;37.574;2023-06-10T01:58:25;2.80;;;2.20;;
75446;SDS011;64024;55.820;37.574;2023-06-10T02:00:50;3.03;;;2.20;;
75446;SDS011;64024;55.820;37.574;2023-06-10T02:03:16;4.35;;;2.33;;
75446;SDS011;64024;55.820;37.574;2023-06-10T02:05:42;3.72;;;2.17;;
75446;SDS011;64024;55.820;37.574;2023-06-10T02:08:08;2.70;;;1.67;;
75446;SDS011;64024;55.820;37.574;2023-06-10T02:10:33;2.75;;;2.00;;
75446;SDS011;64024;55.820;37.574;2023-06-10T02:12:59;4.18;;;1.98;;
75446;SDS011;64024;55.820;37.574;2023-06-10T02:15:25;3.20;;;1.92;;
75446;SDS011;64024;55.820;37.574;2023-06-10T02:17:51;2.58;;;1.75;;
75446;SDS011;64024;55.820;37.574;2023-06-10T02:20:17;8.00;;;2.92;;
75446;SDS011;64024;55.820;37.574;2023-06-10T02:22:43;3.13;;;2.10;;
75446;SDS011;64024;55.820;37.574;2023-06-10T02:25:09;3.03;;;1.88;;
75446;SDS011;64024;55.820;37.574;2023-06-10T02:27:35;2.42;;;2.15;;
75446;SDS011;64024;55.820;37.574;2023-06-10T02:30:01;4.53;;;2.28;;
75446;SDS011;64024;55.820;37.574;2023-06-10T02:32:27;2.17;;;1.60;;
75446;SDS011;64024;55.820;37.574;2023-06-10T02:34:53;3.00;;;1.77;;
75446;SDS011;64024;55.820;37.574;2023-06-10T02:37:19;3.70;;;2.13;;
75446;SDS011;64024;55.820;37.574;2023-06-10T02:39:45;2.70;;;1.70;;
75446;SDS011;64024;55.820;37.574;2023-06-10T02:42:11;3.03;;;1.80;;
75446;SDS011;64024;55.820;37.574;2023-06-10T02:44:37;3.17;;;1.88;;
75446;SDS011;64024;55.820;37.574;2023-06-10T02:47:03;2.38;;;1.73;;
75446;SDS011;64024;55.820;37.574;2023-06-10T02:49:29;2.78;;;1.48;;
75446;SDS011;64024;55.820;37.574;2023-06-10T02:51:55;1.88;;;1.35;;
75446;SDS011;64024;55.820;37.574;2023-06-10T02:54:22;2.88;;;1.52;;
75446;SDS011;64024;55.820;37.574;2023-06-10T02:56:48;3.38;;;1.38;;
75446;SDS011;64024;55.820;37.574;2023-06-10T02:59:14;3.03;;;1.92;;
75446;SDS011;64024;55.820;37.574;2023-06-10T03:01:40;2.72;;;1.55;;
75446;SDS011;64024;55.820;37.574;2023-06-10T03:04:07;3.13;;;1.80;;
75446;SDS011;64024;55.820;37.574;2023-06-10T03:06:34;2.85;;;1.60;;
75446;SDS011;64024;55.820;37.574;2023-06-10T03:09:00;2.38;;;1.48;;
75446;SDS011;64024;55.820;37.574;2023-06-10T03:11:26;2.97;;;1.90;;
75446;SDS011;64024;55.820;37.574;2023-06-10T03:13:52;1.90;;;1.50;;
75446;SDS011;64024;55.820;37.574;2023-06-10T03:18:45;3.17;;;1.65;;
75446;SDS011;64024;55.820;37.574;2023-06-10T03:21:11;3.97;;;1.90;;
75446;SDS011;64024;55.820;37.574;2023-06-10T03:23:36;2.28;;;1.67;;
75446;SDS011;64024;55.820;37.574;2023-06-10T03:26:03;2.20;;;1.58;;
75446;SDS011;64024;55.820;37.574;2023-06-10T03:30:56;2.05;;;1.30;;
75446;SDS011;64024;55.820;37.574;2023-06-10T03:33:22;1.88;;;1.33;;
75446;SDS011;64024;55.820;37.574;2023-06-10T03:35:47;2.70;;;1.40;;
75446;SDS011;64024;55.820;37.574;2023-06-10T03:38:13;1.80;;;1.20;;
75446;SDS011;64024;55.820;37.574;2023-06-10T03:40:39;2.67;;;1.70;;
75446;SDS011;64024;55.820;37.574;2023-06-10T03:43:05;2.88;;;1.55;;
75446;SDS011;64024;55.820;37.574;2023-06-10T03:45:31;3.25;;;1.52;;
75446;SDS011;64024;55.820;37.574;2023-06-10T03:47:57;2.50;;;1.63;;
75446;SDS011;64024;55.820;37.574;2023-06-10T03:50:23;4.28;;;1.98;;
75446;SDS011;64024;55.820;37.574;2023-06-10T03:52:49;2.30;;;1.27;;
75446;SDS011;64024;55.820;37.574;2023-06-10T03:55:15;2.05;;;1.25;;
75446;SDS011;64024;55.820;37.574;2023-06-10T03:57:42;3.25;;;1.65;;
75446;SDS011;64024;55.820;37.574;2023-06-10T04:00:08;2.10;;;1.45;;
75446;SDS011;64024;55.820;37.574;2023-06-10T04:02:38;3.13;;;1.58;;
75446;SDS011;64024;55.820;37.574;2023-06-10T04:05:15;4.82;;;2.53;;
75446;SDS011;64024;55.820;37.574;2023-06-10T04:10:08;4.20;;;1.20;;
75446;SDS011;64024;55.820;37.574;2023-06-10T04:12:35;3.15;;;1.48;;
75446;SDS011;64024;55.820;37.574;2023-06-10T04:15:01;2.10;;;1.75;;
75446;SDS011;64024;55.820;37.574;2023-06-10T04:17:27;2.13;;;1.33;;
75446;SDS011;64024;55.820;37.574;2023-06-10T04:19:53;1.70;;;1.33;;
75446;SDS011;64024;55.820;37.574;2023-06-10T04:22:20;1.95;;;1.33;;
75446;SDS011;64024;55.820;37.574;2023-06-10T04:24:46;2.33;;;1.38;;
75446;SDS011;64024;55.820;37.574;2023-06-10T04:27:11;2.05;;;1.15;;
75446;SDS011;64024;55.820;37.574;2023-06-10T04:29:37;2.17;;;1.25;;
75446;SDS011;64024;55.820;37.574;2023-06-10T04:32:03;3.63;;;1.20;;
75446;SDS011;64024;55.820;37.574;2023-06-10T04:34:30;3.70;;;1.20;;
75446;SDS011;64024;55.820;37.574;2023-06-10T04:36:56;2.75;;;1.13;;
75446;SDS011;64024;55.820;37.574;2023-06-10T04:39:22;2.03;;;1.30;;
75446;SDS011;64024;55.820;37.574;2023-06-10T04:41:48;2.78;;;1.40;;
75446;SDS011;64024;55.820;37.574;2023-06-10T04:44:13;1.92;;;1.20;;
75446;SDS011;64024;55.820;37.574;2023-06-10T04:46:39;4.75;;;1.38;;
75446;SDS011;64024;55.820;37.574;2023-06-10T04:49:05;2.30;;;1.15;;
75446;SDS011;64024;55.820;37.574;2023-06-10T04:51:30;2.72;;;1.33;;
75446;SDS011;64024;55.820;37.574;2023-06-10T04:53:59;3.15;;;1.10;;
75446;SDS011;64024;55.820;37.574;2023-06-10T04:56:29;2.50;;;1.50;;
75446;SDS011;64024;55.820;37.574;2023-06-10T04:58:58;3.17;;;1.63;;
75446;SDS011;64024;55.820;37.574;2023-06-10T05:01:24;2.15;;;1.20;;
75446;SDS011;64024;55.820;37.574;2023-06-10T05:03:50;1.73;;;1.05;;
75446;SDS011;64024;55.820;37.574;2023-06-10T05:06:16;2.72;;;1.23;;
75446;SDS011;64024;55.820;37.574;2023-06-10T05:08:41;3.08;;;1.40;;
75446;SDS011;64024;55.820;37.574;2023-06-10T05:11:07;3.92;;;1.40;;
75446;SDS011;64024;55.820;37.574;2023-06-10T05:13:33;2.95;;;1.35;;
75446;SDS011;64024;55.820;37.574;2023-06-10T05:15:59;3.10;;;1.73;;
75446;SDS011;64024;55.820;37.574;2023-06-10T05:18:25;2.35;;;1.75;;
75446;SDS011;64024;55.820;37.574;2023-06-10T05:20:51;2.63;;;1.42;;
75446;SDS011;64024;55.820;37.574;2023-06-10T05:23:19;1.67;;;1.02;;
75446;SDS011;64024;55.820;37.574;2023-06-10T05:25:45;2.08;;;1.38;;
75446;SDS011;64024;55.820;37.574;2023-06-10T05:28:11;2.75;;;1.45;;
75446;SDS011;64024;55.820;37.574;2023-06-10T05:30:36;1.98;;;1.13;;
75446;SDS011;64024;55.820;37.574;2023-06-10T05:33:03;2.78;;;1.27;;
75446;SDS011;64024;55.820;37.574;2023-06-10T05:35:29;2.42;;;1.40;;
75446;SDS011;64024;55.820;37.574;2023-06-10T05:37:55;2.42;;;1.70;;
75446;SDS011;64024;55.820;37.574;2023-06-10T05:40:21;2.70;;;1.65;;
75446;SDS011;64024;55.820;37.574;2023-06-10T05:42:46;4.30;;;1.55;;
75446;SDS011;64024;55.820;37.574;2023-06-10T05:45:12;3.38;;;1.45;;
75446;SDS011;64024;55.820;37.574;2023-06-10T05:47:38;3.05;;;1.40;;
75446;SDS011;64024;55.820;37.574;2023-06-10T05:50:04;2.00;;;1.40;;
75446;SDS011;64024;55.820;37.574;2023-06-10T05:52:34;3.17;;;1.60;;
75446;SDS011;64024;55.820;37.574;2023-06-10T05:55:00;2.00;;;1.23;;
75446;SDS011;64024;55.820;37.574;2023-06-10T05:57:26;1.98;;;1.20;;
75446;SDS011;64024;55.820;37.574;2023-06-10T05:59:52;3.95;;;1.88;;
75446;SDS011;64024;55.820;37.574;2023-06-10T06:02:17;3.78;;;1.80;;
75446;SDS011;64024;55.820;37.574;2023-06-10T06:04:43;2.08;;;1.40;;
75446;SDS011;64024;55.820;37.574;2023-06-10T06:07:09;2.75;;;1.98;;
75446;SDS011;64024;55.820;37.574;2023-06-10T06:09:35;2.47;;;1.35;;
75446;SDS011;64024;55.820;37.574;2023-06-10T06:12:00;2.63;;;1.50;;
75446;SDS011;64024;55.820;37.574;2023-06-10T06:14:30;2.13;;;1.35;;
75446;SDS011;64024;55.820;37.574;2023-06-10T06:16:57;1.77;;;1.10;;
75446;SDS011;64024;55.820;37.574;2023-06-10T06:19:22;4.15;;;1.27;;
75446;SDS011;64024;55.820;37.574;2023-06-10T06:21:48;2.40;;;1.00;;
75446;SDS011;64024;55.820;37.574;2023-06-10T06:24:15;2.22;;;1.27;;
75446;SDS011;64024;55.820;37.574;2023-06-10T06:26:41;2.00;;;1.33;;
75446;SDS011;64024;55.820;37.574;2023-06-10T06:29:07;3.38;;;1.70;;
75446;SDS011;64024;55.820;37.574;2023-06-10T06:31:33;2.60;;;1.35;;
75446;SDS011;64024;55.820;37.574;2023-06-10T06:33:58;2.45;;;1.08;;
75446;SDS011;64024;55.820;37.574;2023-06-10T06:36:24;1.90;;;1.00;;
75446;SDS011;64024;55.820;37.574;2023-06-10T06:38:49;1.42;;;1.08;;
75446;SDS011;64024;55.820;37.574;2023-06-10T06:41:15;3.35;;;1.48;;
75446;SDS011;64024;55.820;37.574;2023-06-10T06:43:41;4.85;;;1.55;;
75446;SDS011;64024;55.820;37.574;2023-06-10T06:46:08;2.90;;;0.85;;
75446;SDS011;64024;55.820;37.574;2023-06-10T06:48:33;2.20;;;1.20;;
75446;SDS011;64024;55.820;37.574;2023-06-10T06:50:59;2.15;;;1.23;;
75446;SDS011;64024;55.820;37.574;2023-06-10T06:53:25;1.48;;;0.98;;
75446;SDS011;64024;55.820;37.574;2023-06-10T06:55:50;1.58;;;1.13;;
75446;SDS011;64024;55.820;37.574;2023-06-10T06:58:16;1.23;;;0.82;;
75446;SDS011;64024;55.820;37.574;2023-06-10T07:00:41;1.63;;;1.08;;
75446;SDS011;64024;55.820;37.574;2023-06-10T07:03:07;3.40;;;1.67;;
75446;SDS011;64024;55.820;37.574;2023-06-10T07:05:33;2.53;;;1.10;;
75446;SDS011;64024;55.820;37.574;2023-06-10T07:07:58;2.78;;;1.35;;
75446;SDS011;64024;55.820;37.574;2023-06-10T07:10:24;2.13;;;1.17;;
75446;SDS011;64024;55.820;37.574;2023-06-10T07:12:51;1.92;;;0.80;;
75446;SDS011;64024;55.820;37.574;2023-06-10T07:15:17;1.65;;;0.80;;
75446;SDS011;64024;55.820;37.574;2023-06-10T07:17:43;1.50;;;0.90;;
75446;SDS011;64024;55.820;37.574;2023-06-10T07:20:10;2.03;;;0.77;;
75446;SDS011;64024;55.820;37.574;2023-06-10T07:22:36;4.32;;;1.25;;
75446;SDS011;64024;55.820;37.574;2023-06-10T07:25:04;2.25;;;0.80;;
75446;SDS011;64024;55.820;37.574;2023-06-10T07:27:30;1.77;;;0.65;;
75446;SDS011;64024;55.820;37.574;2023-06-10T07:29:56;1.70;;;0.68;;
75446;SDS011;64024;55.820;37.574;2023-06-10T07:32:22;1.88;;;0.90;;
75446;SDS011;64024;55.820;37.574;2023-06-10T07:34:49;1.52;;;1.00;;
75446;SDS011;64024;55.820;37.574;2023-06-10T07:37:15;1.98;;;0.88;;
75446;SDS011;64024;55.820;37.574;2023-06-10T07:39:40;6.07;;;1.10;;
75446;SDS011;64024;55.820;37.574;2023-06-10T07:42:07;2.03;;;1.13;;
75446;SDS011;64024;55.820;37.574;2023-06-10T07:44:33;2.50;;;0.95;;
75446;SDS011;64024;55.820;37.574;2023-06-10T07:46:58;1.55;;;1.15;;
75446;SDS011;64024;55.820;37.574;2023-06-10T07:49:24;3.90;;;1.00;;
75446;SDS011;64024;55.820;37.574;2023-06-10T07:51:50;2.47;;;0.98;;
75446;SDS011;64024;55.820;37.574;2023-06-10T07:54:15;2.30;;;0.90;;
75446;SDS011;64024;55.820;37.574;2023-06-10T07:56:41;2.53;;;1.05;;
75446;SDS011;64024;55.820;37.574;2023-06-10T07:59:07;1.15;;;0.43;;
75446;SDS011;64024;55.820;37.574;2023-06-10T08:01:33;2.97;;;0.60;;
75446;SDS011;64024;55.820;37.574;2023-06-10T08:04:01;1.20;;;0.55;;
75446;SDS011;64024;55.820;37.574;2023-06-10T08:06:26;0.93;;;0.60;;
75446;SDS011;64024;55.820;37.574;2023-06-10T08:08:52;1.63;;;0.40;;
75446;SDS011;64024;55.820;37.574;2023-06-10T08:11:18;1.38;;;0.45;;
75446;SDS011;64024;55.820;37.574;2023-06-10T08:13:44;2.53;;;1.17;;
75446;SDS011;64024;55.820;37.574;2023-06-10T08:16:09;1.63;;;0.90;;
75446;SDS011;64024;55.820;37.574;2023-06-10T08:18:35;2.67;;;0.65;;
75446;SDS011;64024;55.820;37.574;2023-06-10T08:21:01;2.17;;;0.90;;
75446;SDS011;64024;55.820;37.574;2023-06-10T08:23:26;1.23;;;0.43;;
75446;SDS011;64024;55.820;37.574;2023-06-10T08:25:52;1.60;;;0.88;;
75446;SDS011;64024;55.820;37.574;2023-06-10T08:28:18;1.42;;;0.70;;
75446;SDS011;64024;55.820;37.574;2023-06-10T08:30:43;1.75;;;1.02;;
75446;SDS011;64024;55.820;37.574;2023-06-10T08:33:09;1.42;;;0.90;;
75446;SDS011;64024;55.820;37.574;2023-06-10T08:35:38;1.08;;;0.70;;
75446;SDS011;64024;55.820;37.574;2023-06-10T08:38:03;1.20;;;0.70;;
75446;SDS011;64024;55.820;37.574;2023-06-10T08:40:29;1.63;;;0.60;;
75446;SDS011;64024;55.820;37.574;2023-06-10T08:43:00;2.22;;;0.70;;
75446;SDS011;64024;55.820;37.574;2023-06-10T08:45:40;1.27;;;0.68;;
75446;SDS011;64024;55.820;37.574;2023-06-10T08:48:08;2.20;;;0.70;;
75446;SDS011;64024;55.820;37.574;2023-06-10T08:50:37;1.95;;;1.00;;
75446;SDS011;64024;55.820;37.574;2023-06-10T08:53:04;1.90;;;0.63;;
75446;SDS011;64024;55.820;37.574;2023-06-10T08:58:02;2.65;;;0.90;;
75446;SDS011;64024;55.820;37.574;2023-06-10T09:00:29;8.38;;;1.55;;
75446;SDS011;64024;55.820;37.574;2023-06-10T09:02:56;8.07;;;2.50;;
75446;SDS011;64024;55.820;37.574;2023-06-10T09:05:23;1.50;;;0.73;;
75446;SDS011;64024;55.820;37.574;2023-06-10T09:07:50;2.20;;;0.43;;
75446;SDS011;64024;55.820;37.574;2023-06-10T09:10:17;1.35;;;0.32;;
75446;SDS011;64024;55.820;37.574;2023-06-10T09:12:43;2.35;;;0.60;;
75446;SDS011;64024;55.820;37.574;2023-06-10T09:15:09;1.00;;;0.50;;
75446;SDS011;64024;55.820;37.574;2023-06-10T09:17:37;2.30;;;0.63;;
75446;SDS011;64024;55.820;37.574;2023-06-10T09:20:05;6.53;;;1.40;;
75446;SDS011;64024;55.820;37.574;2023-06-10T09:22:34;1.20;;;0.57;;
75446;SDS011;64024;55.820;37.574;2023-06-10T09:27:43;2.17;;;0.80;;
75446;SDS011;64024;55.820;37.574;2023-06-10T09:32:54;2.28;;;0.70;;
75446;SDS011;64024;55.820;37.574;2023-06-10T09:35:21;1.10;;;0.60;;
75446;SDS011;64024;55.820;37.574;2023-06-10T09:37:49;7.22;;;2.65;;
75446;SDS011;64024;55.820;37.574;2023-06-10T09:40:16;3.67;;;1.23;;
75446;SDS011;64024;55.820;37.574;2023-06-10T09:42:42;1.48;;;0.50;;
75446;SDS011;64024;55.820;37.574;2023-06-10T09:45:08;1.70;;;0.60;;
75446;SDS011;64024;55.820;37.574;2023-06-10T09:47:34;2.17;;;0.68;;
75446;SDS011;64024;55.820;37.574;2023-06-10T09:49:59;1.88;;;0.60;;
75446;SDS011;64024;55.820;37.574;2023-06-10T09:54:53;5.10;;;0.70;;
75446;SDS011;64024;55.820;37.574;2023-06-10T09:57:23;1.40;;;0.90;;
75446;SDS011;64024;55.820;37.574;2023-06-10T09:59:52;2.58;;;0.50;;
75446;SDS011;64024;55.820;37.574;2023-06-10T10:02:19;3.38;;;0.70;;
75446;SDS011;64024;55.820;37.574;2023-06-10T10:04:45;1.60;;;0.57;;
75446;SDS011;64024;55.820;37.574;2023-06-10T10:07:11;1.20;;;0.57;;
75446;SDS011;64024;55.820;37.574;2023-06-10T10:09:38;2.60;;;0.70;;
75446;SDS011;64024;55.820;37.574;2023-06-10T10:12:11;3.28;;;1.15;;
75446;SDS011;64024;55.820;37.574;2023-06-10T10:14:39;5.22;;;0.73;;
75446;SDS011;64024;55.820;37.574;2023-06-10T10:17:11;2.40;;;0.60;;
75446;SDS011;64024;55.820;37.574;2023-06-10T10:19:40;1.45;;;0.70;;
75446;SDS011;64024;55.820;37.574;2023-06-10T10:22:15;0.60;;;0.30;;
75446;SDS011;64024;55.820;37.574;2023-06-10T10:24:59;1.50;;;0.63;;
75446;SDS011;64024;55.820;37.574;2023-06-10T10:27:35;1.50;;;0.60;;
75446;SDS011;64024;55.820;37.574;2023-06-10T10:30:06;2.22;;;0.90;;
75446;SDS011;64024;55.820;37.574;2023-06-10T10:32:38;2.60;;;0.57;;
75446;SDS011;64024;55.820;37.574;2023-06-10T10:35:09;1.70;;;0.60;;
75446;SDS011;64024;55.820;37.574;2023-06-10T10:37:42;0.68;;;0.40;;
75446;SDS011;64024;55.820;37.574;2023-06-10T10:40:08;2.97;;;0.40;;
75446;SDS011;64024;55.820;37.574;2023-06-10T10:45:01;1.60;;;0.68;;
75446;SDS011;64024;55.820;37.574;2023-06-10T10:47:28;4.53;;;1.75;;
75446;SDS011;64024;55.820;37.574;2023-06-10T10:49:56;2.85;;;0.90;;
75446;SDS011;64024;55.820;37.574;2023-06-10T10:52:25;1.20;;;0.60;;
75446;SDS011;64024;55.820;37.574;2023-06-10T10:54:53;2.63;;;0.60;;
75446;SDS011;64024;55.820;37.574;2023-06-10T10:57:20;1.42;;;0.80;;
75446;SDS011;64024;55.820;37.574;2023-06-10T11:05:04;3.75;;;0.90;;
75446;SDS011;64024;55.820;37.574;2023-06-10T11:12:54;1.33;;;0.70;;
75446;SDS011;64024;55.820;37.574;2023-06-10T11:15:20;1.33;;;0.77;;
75446;SDS011;64024;55.820;37.574;2023-06-10T11:21:08;2.53;;;1.02;;
75446;SDS011;64024;55.820;37.574;2023-06-10T11:28:38;2.25;;;1.30;;
75446;SDS011;64024;55.820;37.574;2023-06-10T11:31:19;1.02;;;0.50;;
75446;SDS011;64024;55.820;37.574;2023-06-10T11:33:52;0.80;;;0.40;;
75446;SDS011;64024;55.820;37.574;2023-06-10T11:36:19;7.70;;;2.25;;
75446;SDS011;64024;55.820;37.574;2023-06-10T11:38:45;1.67;;;0.70;;
75446;SDS011;64024;55.820;37.574;2023-06-10T11:41:11;1.23;;;0.55;;
75446;SDS011;64024;55.820;37.574;2023-06-10T11:43:40;1.00;;;0.40;;
75446;SDS011;64024;55.820;37.574;2023-06-10T11:46:11;0.70;;;0.43;;
75446;SDS011;64024;55.820;37.574;2023-06-10T11:48:48;1.30;;;0.50;;
75446;SDS011;64024;55.820;37.574;2023-06-10T11:51:17;2.63;;;0.50;;
75446;SDS011;64024;55.820;37.574;2023-06-10T11:53:44;2.40;;;0.90;;
75446;SDS011;64024;55.820;37.574;2023-06-10T11:56:25;5.38;;;1.73;;
75446;SDS011;64024;55.820;37.574;2023-06-10T11:58:53;1.67;;;0.80;;
75446;SDS011;64024;55.820;37.574;2023-06-10T12:01:24;1.60;;;0.57;;
75446;SDS011;64024;55.820;37.574;2023-06-10T12:04:04;1.83;;;0.65;;
75446;SDS011;64024;55.820;37.574;2023-06-10T12:06:38;1.52;;;0.50;;
75446;SDS011;64024;55.820;37.574;2023-06-10T12:09:05;2.78;;;0.43;;
75446;SDS011;64024;55.820;37.574;2023-06-10T12:11:32;7.57;;;2.17;;
75446;SDS011;64024;55.820;37.574;2023-06-10T12:13:59;1.83;;;0.50;;
75446;SDS011;64024;55.820;37.574;2023-06-10T12:16:24;1.25;;;0.63;;
75446;SDS011;64024;55.820;37.574;2023-06-10T12:18:50;2.35;;;0.77;;
75446;SDS011;64024;55.820;37.574;2023-06-10T12:21:24;2.13;;;0.55;;
75446;SDS011;64024;55.820;37.574;2023-06-10T12:24:00;1.95;;;0.50;;
75446;SDS011;64024;55.820;37.574;2023-06-10T12:26:40;1.30;;;0.77;;
75446;SDS011;64024;55.820;37.574;2023-06-10T12:29:27;4.57;;;1.60;;
75446;SDS011;64024;55.820;37.574;2023-06-10T12:32:01;2.42;;;0.73;;
75446;SDS011;64024;55.820;37.574;2023-06-10T12:37:03;1.20;;;0.70;;
75446;SDS011;64024;55.820;37.574;2023-06-10T12:39:38;2.53;;;0.43;;
75446;SDS011;64024;55.820;37.574;2023-06-10T12:42:05;20.50;;;2.45;;
75446;SDS011;64024;55.820;37.574;2023-06-10T12:44:34;1.42;;;0.60;;
75446;SDS011;64024;55.820;37.574;2023-06-10T12:47:09;5.82;;;1.77;;
75446;SDS011;64024;55.820;37.574;2023-06-10T12:49:40;6.38;;;1.25;;
75446;SDS011;64024;55.820;37.574;2023-06-10T12:52:06;1.52;;;0.70;;
75446;SDS011;64024;55.820;37.574;2023-06-10T12:54:32;2.03;;;0.80;;
75446;SDS011;64024;55.820;37.574;2023-06-10T12:59:25;1.90;;;0.52;;
75446;SDS011;64024;55.820;37.574;2023-06-10T13:01:51;0.95;;;0.65;;
75446;SDS011;64024;55.820;37.574;2023-06-10T13:04:17;8.50;;;1.63;;
75446;SDS011;64024;55.820;37.574;2023-06-10T13:06:44;3.03;;;1.13;;
75446;SDS011;64024;55.820;37.574;2023-06-10T13:09:09;2.78;;;1.40;;
75446;SDS011;64024;55.820;37.574;2023-06-10T13:11:35;3.85;;;0.90;;
75446;SDS011;64024;55.820;37.574;2023-06-10T13:14:02;3.17;;;0.70;;
75446;SDS011;64024;55.820;37.574;2023-06-10T13:16:30;1.95;;;0.80;;
75446;SDS011;64024;55.820;37.574;2023-06-10T13:18:57;3.90;;;0.95;;
75446;SDS011;64024;55.820;37.574;2023-06-10T13:21:22;4.68;;;1.75;;
75446;SDS011;64024;55.820;37.574;2023-06-10T13:23:48;2.90;;;1.00;;
75446;SDS011;64024;55.820;37.574;2023-06-10T13:26:15;2.58;;;0.85;;
75446;SDS011;64024;55.820;37.574;2023-06-10T13:28:44;2.20;;;1.00;;
75446;SDS011;64024;55.820;37.574;2023-06-10T13:31:09;1.10;;;0.70;;
75446;SDS011;64024;55.820;37.574;2023-06-10T13:33:35;3.00;;;1.30;;
75446;SDS011;64024;55.820;37.574;2023-06-10T13:36:01;3.15;;;0.88;;
75446;SDS011;64024;55.820;37.574;2023-06-10T13:38:26;6.40;;;1.75;;
75446;SDS011;64024;55.820;37.574;2023-06-10T13:40:52;3.10;;;1.30;;
75446;SDS011;64024;55.820;37.574;2023-06-10T13:43:18;4.28;;;1.55;;
75446;SDS011;64024;55.820;37.574;2023-06-10T13:45:44;2.03;;;1.17;;
75446;SDS011;64024;55.820;37.574;2023-06-10T13:48:10;3.35;;;1.00;;
75446;SDS011;64024;55.820;37.574;2023-06-10T13:50:37;3.05;;;1.08;;
75446;SDS011;64024;55.820;37.574;2023-06-10T13:53:03;1.70;;;0.85;;
75446;SDS011;64024;55.820;37.574;2023-06-10T13:55:29;3.17;;;1.52;;
75446;SDS011;64024;55.820;37.574;2023-06-10T13:57:54;2.20;;;0.82;;
75446;SDS011;64024;55.820;37.574;2023-06-10T14:00:20;2.22;;;1.00;;
75446;SDS011;64024;55.820;37.574;2023-06-10T14:02:46;1.35;;;0.68;;
75446;SDS011;64024;55.820;37.574;2023-06-10T14:05:11;1.25;;;0.70;;
75446;SDS011;64024;55.820;37.574;2023-06-10T14:07:37;2.15;;;1.50;;
75446;SDS011;64024;55.820;37.574;2023-06-10T14:10:03;3.28;;;1.50;;
75446;SDS011;64024;55.820;37.574;2023-06-10T14:12:29;2.47;;;1.42;;
75446;SDS011;64024;55.820;37.574;2023-06-10T14:14:55;4.32;;;1.50;;
75446;SDS011;64024;55.820;37.574;2023-06-10T14:17:21;2.08;;;0.90;;
75446;SDS011;64024;55.820;37.574;2023-06-10T14:22:13;1.92;;;0.82;;
75446;SDS011;64024;55.820;37.574;2023-06-10T14:24:39;2.60;;;0.80;;
75446;SDS011;64024;55.820;37.574;2023-06-10T14:27:05;1.30;;;0.70;;
75446;SDS011;64024;55.820;37.574;2023-06-10T14:29:31;2.10;;;0.80;;
75446;SDS011;64024;55.820;37.574;2023-06-10T14:31:58;2.63;;;1.27;;
75446;SDS011;64024;55.820;37.574;2023-06-10T14:34:25;3.78;;;0.90;;
75446;SDS011;64024;55.820;37.574;2023-06-10T14:36:53;2.15;;;0.90;;
75446;SDS011;64024;55.820;37.574;2023-06-10T14:39:19;1.35;;;0.95;;
75446;SDS011;64024;55.820;37.574;2023-06-10T14:41:45;1.45;;;1.08;;
75446;SDS011;64024;55.820;37.574;2023-06-10T14:44:11;1.55;;;0.80;;
75446;SDS011;64024;55.820;37.574;2023-06-10T14:46:37;1.98;;;1.17;;
75446;SDS011;64024;55.820;37.574;2023-06-10T14:49:03;2.95;;;1.17;;
75446;SDS011;64024;55.820;37.574;2023-06-10T14:51:28;2.88;;;1.27;;
75446;SDS011;64024;55.820;37.574;2023-06-10T14:53:54;1.98;;;1.00;;
75446;SDS011;64024;55.820;37.574;2023-06-10T14:56:20;1.88;;;0.95;;
75446;SDS011;64024;55.820;37.574;2023-06-10T14:58:45;2.35;;;1.00;;
75446;SDS011;64024;55.820;37.574;2023-06-10T15:01:11;1.98;;;1.35;;
75446;SDS011;64024;55.820;37.574;2023-06-10T15:03:36;2.35;;;1.00;;
75446;SDS011;64024;55.820;37.574;2023-06-10T15:06:02;1.77;;;1.30;;
75446;SDS011;64024;55.820;37.574;2023-06-10T15:08:28;2.58;;;1.20;;
75446;SDS011;64024;55.820;37.574;2023-06-10T15:10:53;2.17;;;1.52;;
75446;SDS011;64024;55.820;37.574;2023-06-10T15:13:19;3.17;;;1.13;;
75446;SDS011;64024;55.820;37.574;2023-06-10T15:15:45;1.63;;;0.93;;
75446;SDS011;64024;55.820;37.574;2023-06-10T15:18:11;1.60;;;0.90;;
75446;SDS011;64024;55.820;37.574;2023-06-10T15:20:36;4.47;;;1.70;;
75446;SDS011;64024;55.820;37.574;2023-06-10T15:23:02;2.45;;;1.20;;